createdAt,value
2023-01-23T00:00:49.471Z,3.00
2023-01-23T00:03:17.423Z,3.00
2023-01-23T00:05:45.394Z,3.00
2023-01-23T00:08:14.666Z,3.00
2023-01-23T00:10:43.134Z,3.10
2023-01-23T00:13:11.086Z,3.10
2023-01-23T00:15:40.594Z,3.10
2023-01-23T00:18:08.538Z,3.10
2023-01-23T00:20:38.205Z,3.10
2023-01-23T00:23:06.258Z,3.10
2023-01-23T00:25:35.995Z,3.00
2023-01-23T00:28:04.018Z,3.10
2023-01-23T00:30:31.996Z,3.10
2023-01-23T00:33:01.537Z,3.00
2023-01-23T00:35:29.491Z,3.00
2023-01-23T00:37:57.982Z,3.00
2023-01-23T00:40:26.012Z,3.00
2023-01-23T00:42:55.943Z,3.00
2023-01-23T00:45:23.935Z,3.00
2023-01-23T00:47:51.979Z,3.00
2023-01-23T00:50:23.280Z,3.00
2023-01-23T00:52:52.448Z,3.00
2023-01-23T00:55:20.555Z,2.90
2023-01-23T00:57:51.298Z,2.90
2023-01-23T01:00:21.241Z,3.00
2023-01-23T01:02:51.254Z,2.90
2023-01-23T01:05:19.704Z,2.90
2023-01-23T01:07:47.697Z,2.90
2023-01-23T01:10:16.155Z,2.90
2023-01-23T01:12:44.124Z,2.90
2023-01-23T01:15:12.345Z,2.90
2023-01-23T01:17:47.718Z,3.00
2023-01-23T01:22:39.885Z,2.90
2023-01-23T01:25:08.095Z,2.90
2023-01-23T01:27:36.094Z,2.90
2023-01-23T01:30:04.592Z,2.90
2023-01-23T01:32:32.573Z,2.90
2023-01-23T01:35:00.606Z,2.90
2023-01-23T01:37:28.658Z,2.90
2023-01-23T01:39:58.048Z,2.90
2023-01-23T01:42:31.148Z,2.90
2023-01-23T01:45:00.628Z,2.90
2023-01-23T01:47:29.113Z,2.90
2023-01-23T01:50:00.962Z,2.90
2023-01-23T01:52:29.706Z,2.90
2023-01-23T01:54:59.833Z,2.80
2023-01-23T01:57:30.273Z,2.80
2023-01-23T01:59:59.665Z,2.80
2023-01-23T02:02:30.239Z,2.90
2023-01-23T02:05:00.162Z,2.80
2023-01-23T02:07:35.265Z,2.80
2023-01-23T02:10:05.648Z,2.80
2023-01-23T02:12:35.037Z,2.80
2023-01-23T02:15:04.086Z,2.80
2023-01-23T02:17:38.615Z,2.80
2023-01-23T02:20:11.451Z,2.90
2023-01-23T02:22:43.417Z,2.90
2023-01-23T02:25:20.941Z,2.80
2023-01-23T02:27:51.582Z,2.90
2023-01-23T02:30:21.342Z,2.90
2023-01-23T02:32:49.808Z,2.90
2023-01-23T02:35:29.011Z,2.90
2023-01-23T02:38:04.863Z,2.80
2023-01-23T02:40:33.137Z,2.80
2023-01-23T02:43:02.462Z,2.90
2023-01-23T02:45:31.236Z,2.90
2023-01-23T02:48:01.653Z,2.90
2023-01-23T02:50:30.115Z,2.90
2023-01-23T02:53:02.759Z,2.90
2023-01-23T02:55:33.960Z,2.90
2023-01-23T02:58:17.255Z,2.90
2023-01-23T03:00:45.322Z,2.90
2023-01-23T03:03:13.376Z,2.90
2023-01-23T03:05:43.772Z,2.90
2023-01-23T03:08:17.064Z,2.90
2023-01-23T03:10:45.054Z,2.80
2023-01-23T03:13:17.264Z,2.80
2023-01-23T03:15:45.271Z,2.80
2023-01-23T03:18:13.229Z,2.80
2023-01-23T03:20:41.944Z,2.80
2023-01-23T03:23:10.292Z,2.80
2023-01-23T03:25:38.539Z,2.80
2023-01-23T03:28:26.538Z,2.80
2023-01-23T03:30:54.896Z,2.80
2023-01-23T03:33:23.200Z,2.80
2023-01-23T03:35:52.426Z,2.80
2023-01-23T03:38:20.503Z,2.80
2023-01-23T03:41:08.247Z,2.80
2023-01-23T03:43:36.195Z,2.80
2023-01-23T03:46:08.402Z,2.80
2023-01-23T03:48:36.437Z,2.80
2023-01-23T03:51:04.568Z,2.80
2023-01-23T03:53:32.712Z,2.80
2023-01-23T03:56:01.120Z,2.80
2023-01-23T03:58:30.492Z,2.80
2023-01-23T04:00:58.523Z,2.80
2023-01-23T04:03:27.880Z,2.80
2023-01-23T04:05:59.118Z,2.80
2023-01-23T04:08:27.178Z,2.80
2023-01-23T04:11:01.439Z,2.80
2023-01-23T04:13:29.411Z,2.80
2023-01-23T04:15:57.497Z,2.80
2023-01-23T04:18:25.540Z,2.80
2023-01-23T04:20:55.135Z,2.70
2023-01-23T04:23:23.607Z,2.70
2023-01-23T04:25:52.141Z,2.70
2023-01-23T04:28:20.733Z,2.70
2023-01-23T04:30:48.785Z,2.70
2023-01-23T04:33:16.807Z,2.70
2023-01-23T04:35:50.194Z,2.70
2023-01-23T04:38:19.599Z,2.70
2023-01-23T04:40:48.020Z,2.70
2023-01-23T04:43:15.986Z,2.70
2023-01-23T04:45:44.902Z,2.70
2023-01-23T04:48:13.343Z,2.70
2023-01-23T04:50:41.294Z,2.70
2023-01-23T04:53:09.368Z,2.70
2023-01-23T04:55:38.772Z,2.70
2023-01-23T04:58:06.772Z,2.70
2023-01-23T05:00:40.391Z,2.70
2023-01-23T05:03:08.444Z,2.80
2023-01-23T05:05:36.401Z,2.80
2023-01-23T05:08:04.425Z,2.80
2023-01-23T05:10:32.677Z,2.80
2023-01-23T05:13:03.569Z,2.80
2023-01-23T05:15:35.293Z,2.80
2023-01-23T05:18:03.310Z,2.80
2023-01-23T05:20:31.294Z,2.80
2023-01-23T05:22:59.704Z,2.80
2023-01-23T05:25:28.894Z,2.80
2023-01-23T05:27:57.020Z,2.80
2023-01-23T05:30:26.405Z,2.80
2023-01-23T05:32:54.373Z,2.80
2023-01-23T05:35:23.653Z,2.80
2023-01-23T05:37:52.145Z,2.80
2023-01-23T05:40:21.320Z,2.80
2023-01-23T05:42:50.668Z,2.80
2023-01-23T05:45:20.186Z,2.80
2023-01-23T05:47:49.531Z,2.80
2023-01-23T05:50:22.648Z,2.80
2023-01-23T05:52:50.881Z,2.80
2023-01-23T05:55:18.887Z,2.80
2023-01-23T05:57:46.848Z,2.80
2023-01-23T06:00:17.257Z,2.80
2023-01-23T06:02:47.435Z,2.80
2023-01-23T06:05:23.879Z,2.80
2023-01-23T06:07:51.830Z,2.80
2023-01-23T06:10:20.676Z,2.80
2023-01-23T06:12:48.775Z,2.70
2023-01-23T06:15:37.539Z,2.80
2023-01-23T06:18:05.606Z,2.70
2023-01-23T06:20:34.963Z,2.70
2023-01-23T06:23:03.007Z,2.70
2023-01-23T06:25:30.995Z,2.70
2023-01-23T06:27:58.951Z,2.80
2023-01-23T06:30:28.487Z,2.80
2023-01-23T06:32:59.385Z,2.80
2023-01-23T06:35:27.412Z,2.80
2023-01-23T06:37:56.758Z,2.70
2023-01-23T06:40:25.056Z,2.80
2023-01-23T06:42:55.619Z,2.80
2023-01-23T06:45:23.586Z,2.80
2023-01-23T06:47:52.663Z,2.80
2023-01-23T06:50:20.965Z,2.80
2023-01-23T06:52:49.041Z,2.80
2023-01-23T06:55:18.486Z,2.80
2023-01-23T06:57:46.579Z,2.80
2023-01-23T07:00:15.755Z,2.80
2023-01-23T07:02:45.635Z,2.80
2023-01-23T07:05:15.045Z,2.80
2023-01-23T07:07:43.024Z,2.80
2023-01-23T07:10:11.736Z,2.80
2023-01-23T07:12:43.589Z,2.80
2023-01-23T07:15:14.333Z,2.80
2023-01-23T07:17:43.502Z,2.80
2023-01-23T07:20:12.109Z,2.80
2023-01-23T07:22:40.429Z,2.80
2023-01-23T07:25:09.090Z,2.80
2023-01-23T07:27:37.078Z,2.80
2023-01-23T07:30:07.016Z,2.80
2023-01-23T07:32:34.966Z,2.80
2023-01-23T07:35:02.909Z,2.80
2023-01-23T07:37:30.919Z,2.80
2023-01-23T07:39:58.870Z,2.80
2023-01-23T07:42:28.829Z,2.80
2023-01-23T07:44:56.820Z,2.80
2023-01-23T07:47:26.234Z,2.80
2023-01-23T07:49:54.243Z,2.80
2023-01-23T07:52:22.230Z,2.80
2023-01-23T07:54:50.236Z,2.80
2023-01-23T07:57:18.204Z,2.80
2023-01-23T07:59:46.192Z,2.80
2023-01-23T08:02:14.278Z,2.80
2023-01-23T08:04:43.609Z,2.80
2023-01-23T08:07:11.561Z,2.80
2023-01-23T08:09:40.334Z,3.00
2023-01-23T08:12:08.434Z,2.80
2023-01-23T08:14:39.278Z,2.80
2023-01-23T08:17:07.394Z,2.80
2023-01-23T08:19:35.548Z,2.80
2023-01-23T08:22:04.957Z,2.80
2023-01-23T08:24:33.012Z,2.80
2023-01-23T08:27:00.981Z,2.80
2023-01-23T08:29:29.021Z,2.80
2023-01-23T08:31:57.145Z,2.80
2023-01-23T08:34:25.139Z,2.80
2023-01-23T08:36:53.095Z,2.80
2023-01-23T08:39:22.517Z,2.80
2023-01-23T08:41:50.517Z,2.80
2023-01-23T08:44:18.884Z,2.90
2023-01-23T08:46:46.939Z,2.80
2023-01-23T08:49:14.904Z,2.90
2023-01-23T08:51:45.290Z,2.90
2023-01-23T08:54:13.342Z,2.90
2023-01-23T08:56:42.672Z,2.90
2023-01-23T08:59:10.695Z,2.90
2023-01-23T09:01:38.652Z,2.90
2023-01-23T09:04:06.674Z,2.90
2023-01-23T09:06:34.663Z,2.90
2023-01-23T09:09:02.626Z,2.90
2023-01-23T09:11:30.663Z,2.90
2023-01-23T09:14:04.077Z,2.90
2023-01-23T09:16:32.187Z,2.90
2023-01-23T09:19:00.168Z,2.90
2023-01-23T09:21:28.127Z,2.90
2023-01-23T09:23:57.565Z,2.90
2023-01-23T09:26:25.570Z,3.00
2023-01-23T09:28:53.593Z,3.00
2023-01-23T09:31:23.004Z,3.00
2023-01-23T09:33:51.305Z,3.00
2023-01-23T09:36:21.828Z,3.00
2023-01-23T09:38:53.513Z,3.00
2023-01-23T09:41:22.699Z,3.00
2023-01-23T09:43:53.047Z,3.00
2023-01-23T09:46:25.966Z,3.00
2023-01-23T09:48:56.110Z,3.00
2023-01-23T09:51:26.739Z,3.00
2023-01-23T09:53:57.045Z,3.00
2023-01-23T09:56:29.742Z,3.00
2023-01-23T09:59:03.396Z,3.00
2023-01-23T10:01:32.908Z,3.10
2023-01-23T10:04:01.894Z,3.10
2023-01-23T10:06:30.971Z,3.10
2023-01-23T10:09:06.235Z,3.10
2023-01-23T10:11:39.155Z,3.10
2023-01-23T10:14:17.353Z,3.10
2023-01-23T10:16:53.486Z,3.20
2023-01-23T10:19:27.571Z,3.20
2023-01-23T10:22:00.730Z,3.20
2023-01-23T10:24:40.405Z,3.20
2023-01-23T10:27:16.525Z,3.20
2023-01-23T10:29:46.240Z,3.20
2023-01-23T10:32:22.123Z,3.20
2023-01-23T10:34:54.423Z,3.20
2023-01-23T10:37:26.547Z,3.20
2023-01-23T10:39:56.705Z,3.30
2023-01-23T10:42:26.573Z,3.30
2023-01-23T10:44:57.244Z,3.30
2023-01-23T10:47:46.332Z,3.30
2023-01-23T10:50:16.247Z,3.30
2023-01-23T10:52:44.702Z,3.30
2023-01-23T10:55:29.244Z,3.30
2023-01-23T10:57:58.285Z,3.40
2023-01-23T11:00:28.689Z,3.40
2023-01-23T11:03:05.153Z,3.40
2023-01-23T11:05:50.418Z,3.40
2023-01-23T11:08:23.840Z,3.40
2023-01-23T11:10:51.862Z,3.40
2023-01-23T11:13:28.731Z,3.40
2023-01-23T11:15:59.346Z,3.50
2023-01-23T11:18:33.464Z,3.50
2023-01-23T11:21:01.924Z,3.50
2023-01-23T11:23:30.874Z,3.50
2023-01-23T11:25:58.845Z,3.50
2023-01-23T11:28:30.761Z,3.50
2023-01-23T11:31:13.799Z,3.60
2023-01-23T11:33:47.997Z,3.60
2023-01-23T11:36:31.261Z,3.60
2023-01-23T11:39:01.467Z,3.60
2023-01-23T11:41:30.744Z,3.70
2023-01-23T11:43:58.731Z,3.70
2023-01-23T11:46:36.318Z,3.70
2023-01-23T11:49:15.690Z,3.70
2023-01-23T11:51:48.682Z,3.70
2023-01-23T11:54:27.252Z,3.70
2023-01-23T11:57:00.237Z,3.70
2023-01-23T11:59:43.542Z,3.70
2023-01-23T12:02:22.495Z,3.70
2023-01-23T12:05:00.988Z,3.70
2023-01-23T12:07:28.959Z,3.70
2023-01-23T12:10:04.116Z,3.70
2023-01-23T12:12:47.949Z,3.80
2023-01-23T12:15:19.475Z,3.80
2023-01-23T12:17:52.261Z,3.80
2023-01-23T12:20:29.308Z,3.80
2023-01-23T12:23:03.147Z,3.80
2023-01-23T12:25:34.874Z,3.90
2023-01-23T12:28:07.639Z,3.90
2023-01-23T12:30:54.658Z,3.90
2023-01-23T12:33:28.819Z,3.90
2023-01-23T12:36:02.869Z,3.90
2023-01-23T12:38:32.037Z,3.90
2023-01-23T12:41:06.511Z,3.90
2023-01-23T12:43:37.351Z,4.00
2023-01-23T12:46:06.962Z,4.00
2023-01-23T12:48:38.233Z,3.90
2023-01-23T12:51:14.960Z,3.90
2023-01-23T12:53:44.063Z,3.90
2023-01-23T12:56:14.799Z,4.00
2023-01-23T12:58:44.108Z,4.00
2023-01-23T13:01:16.935Z,4.00
2023-01-23T13:04:00.056Z,4.00
2023-01-23T13:06:37.222Z,4.00
2023-01-23T13:09:17.352Z,4.00
2023-01-23T13:11:51.565Z,4.00
2023-01-23T13:14:23.343Z,4.00
2023-01-23T13:16:52.538Z,4.00
2023-01-23T13:19:43.050Z,4.00
2023-01-23T13:22:22.430Z,4.00
2023-01-23T13:25:12.897Z,4.00
2023-01-23T13:27:42.632Z,4.00
2023-01-23T13:30:31.759Z,4.00
2023-01-23T13:33:03.878Z,4.00
2023-01-23T13:35:52.965Z,4.00
2023-01-23T13:38:37.569Z,4.00
2023-01-23T13:41:21.519Z,4.00
2023-01-23T13:43:53.324Z,4.00
2023-01-23T13:46:26.086Z,4.00
2023-01-23T14:20:26.881Z,3.90
2023-01-23T14:22:55.513Z,4.00
2023-01-23T14:25:23.884Z,3.90
2023-01-23T14:28:02.796Z,3.90
2023-01-23T14:30:31.646Z,3.90
2023-01-23T14:33:01.103Z,3.90
2023-01-23T14:35:29.789Z,3.90
2023-01-23T14:37:58.886Z,3.90
2023-01-23T14:40:33.278Z,3.90
2023-01-23T14:43:07.842Z,3.90
2023-01-23T14:45:36.760Z,3.90
2023-01-23T14:48:08.118Z,3.90
2023-01-23T14:50:36.141Z,3.90
2023-01-23T14:53:05.640Z,3.90
2023-01-23T14:55:35.983Z,3.90
2023-01-23T14:58:04.933Z,3.90
2023-01-23T15:00:33.110Z,3.90
2023-01-23T15:03:01.291Z,3.90
2023-01-23T15:05:32.837Z,3.90
2023-01-23T15:08:16.925Z,3.90
2023-01-23T15:10:46.167Z,3.90
2023-01-23T15:13:15.520Z,3.90
2023-01-23T15:15:46.411Z,3.90
2023-01-23T15:18:22.651Z,3.90
2023-01-23T15:20:56.711Z,3.90
2023-01-23T15:23:31.271Z,3.90
2023-01-23T15:26:13.211Z,3.90
2023-01-23T15:28:43.077Z,3.90
2023-01-23T15:31:23.815Z,3.90
2023-01-23T15:33:52.169Z,3.90
2023-01-23T15:36:26.178Z,3.90
2023-01-23T15:38:54.511Z,3.90
2023-01-23T15:41:37.380Z,3.90
2023-01-23T15:44:11.105Z,3.90
2023-01-23T15:46:39.328Z,3.90
2023-01-23T15:49:16.437Z,3.90
2023-01-23T15:51:53.390Z,3.90
2023-01-23T15:54:25.302Z,3.90
2023-01-23T15:57:05.620Z,3.80
2023-01-23T15:59:35.557Z,3.90
2023-01-23T16:02:03.544Z,3.80
2023-01-23T16:04:31.516Z,3.80
2023-01-23T16:07:02.173Z,3.80
2023-01-23T16:09:31.557Z,3.80
2023-01-23T16:12:01.195Z,3.80
2023-01-23T16:14:29.266Z,3.80
2023-01-23T16:17:04.676Z,3.80
2023-01-23T16:19:39.549Z,3.80
2023-01-23T16:22:11.354Z,3.80
2023-01-23T16:24:40.373Z,3.70
2023-01-23T16:27:11.991Z,3.70
2023-01-23T16:29:40.005Z,3.70
2023-01-23T16:32:08.325Z,3.70
2023-01-23T16:34:36.537Z,3.70
2023-01-23T16:37:04.642Z,3.70
2023-01-23T16:39:34.476Z,3.70
2023-01-23T16:42:03.208Z,3.70
2023-01-23T16:44:31.180Z,3.70
2023-01-23T16:46:59.179Z,3.70
2023-01-23T16:49:27.238Z,3.70
2023-01-23T16:51:57.725Z,3.70
2023-01-23T16:54:26.229Z,3.70
2023-01-23T16:56:58.837Z,3.60
2023-01-23T16:59:30.352Z,3.60
2023-01-23T17:01:58.502Z,3.70
2023-01-23T17:04:26.655Z,3.60
2023-01-23T17:06:54.617Z,3.70
2023-01-23T17:09:22.574Z,3.60
2023-01-23T17:11:52.152Z,3.60
2023-01-23T17:14:23.546Z,3.60
2023-01-23T17:16:52.578Z,3.60
2023-01-23T17:19:23.659Z,3.60
2023-01-23T17:21:51.842Z,3.60
2023-01-23T17:24:21.912Z,3.60
2023-01-23T17:26:49.930Z,3.60
2023-01-23T17:29:19.846Z,3.60
2023-01-23T17:31:49.523Z,3.60
2023-01-23T17:34:21.271Z,3.60
2023-01-23T17:36:49.546Z,3.60
2023-01-23T17:39:17.553Z,3.60
2023-01-23T17:41:45.575Z,3.60
2023-01-23T17:44:16.338Z,3.60
2023-01-23T17:46:44.456Z,3.70
2023-01-23T17:49:27.188Z,3.60
2023-01-23T17:51:55.618Z,3.60
2023-01-23T17:54:23.615Z,3.60
2023-01-23T17:56:51.614Z,3.60
2023-01-23T17:59:19.550Z,3.70
2023-01-23T18:01:48.439Z,3.60
2023-01-23T18:04:17.166Z,3.70
2023-01-23T18:06:46.612Z,3.70
2023-01-23T18:09:15.075Z,3.60
2023-01-23T18:11:49.725Z,3.60
2023-01-23T18:14:32.664Z,3.60
2023-01-23T18:17:03.394Z,3.60
2023-01-23T18:19:31.672Z,3.60
2023-01-23T18:22:04.147Z,3.60
2023-01-23T18:24:35.203Z,3.60
2023-01-23T18:27:12.031Z,3.60
2023-01-23T18:29:47.548Z,3.60
2023-01-23T18:32:35.856Z,3.60
2023-01-23T18:35:08.150Z,3.50
2023-01-23T18:37:43.322Z,3.60
2023-01-23T18:40:13.962Z,3.60
2023-01-23T18:42:46.159Z,3.60
2023-01-23T18:45:23.538Z,3.60
2023-01-23T18:47:54.918Z,3.60
2023-01-23T18:50:25.226Z,3.60
2023-01-23T18:53:06.082Z,3.60
2023-01-23T18:55:38.032Z,3.50
2023-01-23T18:58:25.530Z,3.50
2023-01-23T19:00:59.195Z,3.60
2023-01-23T19:03:29.847Z,3.60
2023-01-23T19:05:59.029Z,3.60
2023-01-23T19:08:32.731Z,3.60
2023-01-23T19:11:03.018Z,3.60
2023-01-23T19:13:35.996Z,3.60
2023-01-23T19:16:07.456Z,3.60
2023-01-23T19:18:46.265Z,3.60
2023-01-23T19:21:19.939Z,3.60
2023-01-23T19:23:53.547Z,3.60
2023-01-23T19:26:22.244Z,3.60
2023-01-23T19:28:50.724Z,3.60
2023-01-23T19:31:21.728Z,3.60
2023-01-23T19:33:50.069Z,3.50
2023-01-23T19:36:18.211Z,3.50
2023-01-23T19:38:46.447Z,3.60
2023-01-23T19:41:19.649Z,3.60
2023-01-23T19:43:48.484Z,3.60
2023-01-23T19:46:16.934Z,3.60
2023-01-23T19:48:44.955Z,3.60
2023-01-23T19:51:14.436Z,3.60
2023-01-23T19:53:42.432Z,3.50
2023-01-23T19:56:11.539Z,3.50
2023-01-23T19:58:43.712Z,3.60
2023-01-23T20:01:18.058Z,3.50
2023-01-23T20:03:46.234Z,3.60
2023-01-23T20:06:14.218Z,3.50
2023-01-23T20:08:42.304Z,3.50
2023-01-23T20:11:10.716Z,3.50
2023-01-23T20:13:38.684Z,3.50
2023-01-23T20:16:14.373Z,3.40
2023-01-23T20:18:42.773Z,3.50
2023-01-23T20:21:11.180Z,3.50
2023-01-23T20:23:39.225Z,3.50
2023-01-23T20:26:07.203Z,3.50
2023-01-23T20:28:35.279Z,3.50
2023-01-23T20:31:04.629Z,3.50
2023-01-23T20:33:34.319Z,3.50
2023-01-23T20:36:02.333Z,3.50
2023-01-23T20:38:30.588Z,3.50
2023-01-23T20:41:03.060Z,3.40
2023-01-23T20:43:31.114Z,3.50
2023-01-23T20:45:59.089Z,3.50
2023-01-23T20:48:27.458Z,3.50
2023-01-23T20:50:57.679Z,3.50
2023-01-23T20:53:30.883Z,3.50
2023-01-23T20:55:59.728Z,3.50
2023-01-23T20:58:45.068Z,3.50
2023-01-23T21:01:13.588Z,3.50
2023-01-23T21:03:42.165Z,3.50
2023-01-23T21:06:15.611Z,3.50
2023-01-23T21:08:43.889Z,3.50
2023-01-23T21:11:13.313Z,3.50
2023-01-23T21:13:41.658Z,3.50
2023-01-23T21:16:12.131Z,3.50
2023-01-23T21:18:42.489Z,3.50
2023-01-23T21:21:13.185Z,3.50
2023-01-23T21:23:41.367Z,3.50
2023-01-23T21:26:09.399Z,3.50
2023-01-23T21:28:38.317Z,3.50
2023-01-23T21:31:10.059Z,3.50
2023-01-23T21:33:40.395Z,3.50
2023-01-23T21:36:08.897Z,3.40
2023-01-23T21:38:38.352Z,3.50
2023-01-23T21:41:06.615Z,3.50
2023-01-23T21:43:34.628Z,3.50
2023-01-23T21:46:03.035Z,3.50
2023-01-23T21:48:31.234Z,3.40
2023-01-23T21:51:04.693Z,3.50
2023-01-23T21:53:32.739Z,3.40
2023-01-23T21:56:02.061Z,3.50
2023-01-23T21:58:30.037Z,3.50
2023-01-23T22:01:15.576Z,3.40
2023-01-23T22:03:43.907Z,3.40
2023-01-23T22:06:13.927Z,3.50
2023-01-23T22:08:42.298Z,3.50
2023-01-23T22:11:11.814Z,3.50
2023-01-23T22:13:39.849Z,3.50
2023-01-23T22:16:08.200Z,3.50
2023-01-23T22:18:36.185Z,3.50
2023-01-23T22:21:07.990Z,3.50
2023-01-23T22:23:36.069Z,3.50
2023-01-23T22:26:07.819Z,3.50
2023-01-23T22:28:37.328Z,3.50
2023-01-23T22:31:06.498Z,3.50
2023-01-23T22:33:40.919Z,3.50
2023-01-23T22:36:09.912Z,3.50
2023-01-23T22:38:37.898Z,3.50
2023-01-23T22:41:06.926Z,3.50
2023-01-23T22:43:35.062Z,3.50
2023-01-23T22:46:10.999Z,3.50
2023-01-23T22:48:42.042Z,3.50
2023-01-23T22:51:14.343Z,3.50
2023-01-23T22:53:42.611Z,3.50
2023-01-23T22:56:10.826Z,3.50
2023-01-23T22:58:38.795Z,3.50
2023-01-23T23:01:11.462Z,3.50
2023-01-23T23:03:40.899Z,3.50
2023-01-23T23:06:12.915Z,3.50
2023-01-23T23:08:40.931Z,3.50
2023-01-23T23:11:09.970Z,3.50
2023-01-23T23:13:38.940Z,3.50
2023-01-23T23:16:12.759Z,3.50
2023-01-23T23:18:42.151Z,3.50
2023-01-23T23:21:13.635Z,3.50
2023-01-23T23:23:44.739Z,3.50
2023-01-23T23:26:13.045Z,3.50
2023-01-23T23:28:41.697Z,3.50
2023-01-23T23:31:13.033Z,3.50
2023-01-23T23:33:48.914Z,3.50
2023-01-23T23:36:18.904Z,3.50
2023-01-23T23:38:51.363Z,3.50
2023-01-23T23:41:19.377Z,3.50
2023-01-23T23:43:47.391Z,3.50
2023-01-23T23:46:16.400Z,3.50
2023-01-23T23:48:46.194Z,3.50
2023-01-23T23:51:15.059Z,3.50
2023-01-23T23:53:43.100Z,3.50
2023-01-23T23:56:11.553Z,3.50
2023-01-23T23:58:39.639Z,3.40
